Time;durP1;ratioP1;P1;durP2;ratioP2;P2;SDS_P1;SDS_P2;PMS_P1;PMS_P2;Temp;Humidity;BMP_temperature;BMP_pressure;BME280_temperature;BME280_humidity;BME280_pressure;Samples;Min_cycle;Max_cycle;Signal;HPM_P1;HPM_P2
2021/12/15 00:00:46;;;;;;;66.03;17.08;;;4.80;99.90;;;3.13;100.00;102147.56;4966219;28;20420;-80
2021/12/15 00:03:15;;;;;;;63.95;15.80;;;4.80;99.90;;;3.14;100.00;102138.91;4976430;28;20085;-79
2021/12/15 00:05:45;;;;;;;65.70;15.75;;;4.80;99.90;;;3.17;100.00;102138.91;4965544;28;20410;-80
2021/12/15 00:08:12;;;;;;;76.90;15.77;;;4.90;99.90;;;3.22;100.00;102142.44;4992566;28;20098;-80
2021/12/15 00:10:41;;;;;;;74.50;16.17;;;4.90;99.90;;;3.21;100.00;102144.16;4976545;28;20803;-80
2021/12/15 00:13:19;;;;;;;66.38;15.45;;;4.90;99.90;;;3.19;100.00;102137.19;4963976;28;20056;-79
2021/12/15 00:15:49;;;;;;;66.95;15.68;;;4.90;99.90;;;3.17;100.00;102134.56;4973593;28;20031;-80
2021/12/15 00:18:16;;;;;;;79.65;17.55;;;4.90;99.90;;;3.20;100.00;102134.63;4942957;28;20034;-79
2021/12/15 00:20:44;;;;;;;69.97;17.25;;;4.90;99.90;;;3.23;100.00;102128.53;4973071;28;20099;-79
2021/12/15 00:23:10;;;;;;;64.40;16.38;;;5.00;99.90;;;3.27;100.00;102130.31;4995503;28;20040;-78
2021/12/15 00:25:41;;;;;;;71.22;17.40;;;5.00;99.90;;;3.32;100.00;102117.31;4991496;28;20370;-78
2021/12/15 00:28:11;;;;;;;61.03;15.48;;;5.00;99.90;;;3.37;100.00;102116.50;4990921;28;20112;-79
2021/12/15 00:30:38;;;;;;;66.60;16.23;;;5.10;99.90;;;3.42;100.00;102121.72;4981673;28;20129;-79
2021/12/15 00:33:16;;;;;;;70.22;17.33;;;5.20;99.90;;;3.50;100.00;102127.84;4994765;28;20028;-80
2021/12/15 00:35:42;;;;;;;68.65;16.73;;;5.20;99.90;;;3.58;100.00;102133.06;4981274;28;20037;-79
2021/12/15 00:38:08;;;;;;;71.25;17.38;;;5.30;99.90;;;3.67;100.00;102143.53;4979511;28;20631;-80
2021/12/15 00:40:43;;;;;;;69.93;16.95;;;5.40;99.90;;;3.71;100.00;102137.47;4993941;28;20035;-80
2021/12/15 00:43:09;;;;;;;80.80;16.53;;;5.40;99.90;;;3.81;100.00;102141.88;4949637;28;20039;-80
2021/12/15 00:45:36;;;;;;;69.90;16.67;;;5.50;99.90;;;3.86;100.00;102141.88;5006186;28;20036;-78
2021/12/15 00:48:12;;;;;;;77.25;16.92;;;5.60;99.90;;;3.90;100.00;102147.09;4959145;28;20036;-81
2021/12/15 00:50:50;;;;;;;78.18;17.25;;;5.60;99.90;;;3.96;100.00;102150.63;4972366;28;20109;-80
2021/12/15 00:53:16;;;;;;;80.32;17.38;;;5.70;99.90;;;4.04;100.00;102151.50;4991715;28;20066;-79
2021/12/15 00:55:44;;;;;;;77.57;17.40;;;5.70;99.90;;;4.09;100.00;102148.03;5001920;28;20029;-80
2021/12/15 00:58:16;;;;;;;82.82;18.17;;;5.80;99.90;;;4.16;100.00;102153.28;4951657;28;20048;-80
2021/12/15 01:00:48;;;;;;;83.65;19.45;;;5.80;99.90;;;4.23;100.00;102144.59;4991248;28;20029;-80
2021/12/15 01:03:21;;;;;;;97.13;18.38;;;5.90;99.90;;;4.29;100.00;102142.88;4990318;28;20032;-84
2021/12/15 01:05:52;;;;;;;94.55;19.48;;;6.00;99.90;;;4.42;100.00;102153.34;5015044;28;20066;-79
2021/12/15 01:08:28;;;;;;;121.35;21.67;;;6.10;99.90;;;4.50;100.00;102154.22;4991121;28;20028;-79
2021/12/15 01:11:13;;;;;;;109.40;20.00;;;6.20;99.90;;;4.57;100.00;102155.97;4983108;28;20063;-79
2021/12/15 01:19:58;;;;;;;106.90;20.85;;;6.30;99.90;;;4.71;100.00;102188.16;4968333;28;20115;-79
2021/12/15 01:22:37;;;;;;;130.65;22.10;;;6.40;99.90;;;4.76;100.00;102226.44;5020785;28;20047;-78
2021/12/15 01:25:31;;;;;;;149.70;23.83;;;6.40;99.90;;;4.82;100.00;102221.25;5035920;28;20111;-79
2021/12/15 01:27:57;;;;;;;151.05;22.33;;;6.50;99.90;;;4.84;100.00;102220.38;4968608;28;20123;-79
2021/12/15 01:30:36;;;;;;;148.93;23.73;;;6.50;99.90;;;4.88;100.00;102237.78;4998437;28;20044;-79
2021/12/15 01:33:04;;;;;;;148.27;24.60;;;6.50;99.90;;;4.92;100.00;102247.34;4967619;28;20033;-79
2021/12/15 01:35:37;;;;;;;139.18;22.75;;;6.60;99.90;;;4.95;100.00;102262.16;4972613;28;20037;-79
2021/12/15 01:38:05;;;;;;;146.02;22.65;;;6.60;99.90;;;4.99;100.00;102273.44;4989496;28;20037;-79
2021/12/15 01:40:43;;;;;;;152.23;22.63;;;6.60;99.90;;;5.02;100.00;102281.28;4991330;28;20068;-79
2021/12/15 01:43:32;;;;;;;158.95;23.40;;;6.70;99.90;;;5.05;100.00;102308.25;5003244;28;20034;-79
2021/12/15 01:49:02;;;;;;;200.10;25.67;;;6.70;99.90;;;5.13;100.00;102324.81;4987796;28;20047;-79
2021/12/15 01:51:29;;;;;;;176.90;25.98;;;6.80;99.90;;;5.17;100.00;102317.88;4978253;28;20036;-79
2021/12/15 01:54:01;;;;;;;186.45;25.48;;;;;;;5.18;100.00;102337.88;4957616;28;20385;-78
2021/12/15 01:56:29;;;;;;;177.18;26.10;;;6.80;99.90;;;5.19;100.00;102346.59;4996927;28;20041;-79
2021/12/15 01:58:57;;;;;;;203.73;25.52;;;6.80;99.90;;;5.23;100.00;102343.13;5005734;28;20055;-79
2021/12/15 02:01:29;;;;;;;195.25;25.63;;;6.90;99.90;;;5.26;100.00;102353.56;4981994;28;20033;-79
2021/12/15 02:03:56;;;;;;;204.45;26.60;;;6.90;99.90;;;5.29;100.00;102374.47;4960576;28;20049;-79
2021/12/15 02:06:23;;;;;;;186.25;25.88;;;6.90;99.90;;;5.29;100.00;102372.75;5006344;28;20545;-79
2021/12/15 02:08:49;;;;;;;180.90;24.70;;;6.90;99.90;;;5.32;100.00;102395.38;4999553;28;20963;-78
2021/12/15 02:11:22;;;;;;;179.68;25.73;;;6.90;99.90;;;5.31;100.00;102404.06;4967160;28;20115;-79
2021/12/15 02:13:51;;;;;;;156.35;25.75;;;6.90;99.90;;;5.31;100.00;102424.97;4999062;28;20044;-79
2021/12/15 02:16:17;;;;;;;206.57;27.98;;;6.90;99.90;;;5.30;100.00;102439.78;4985686;28;20029;-79
2021/12/15 02:18:46;;;;;;;179.43;25.30;;;6.90;99.90;;;5.34;100.00;102464.16;4963351;28;20024;-79
2021/12/15 02:21:19;;;;;;;183.35;26.27;;;7.00;99.90;;;5.33;100.00;102451.97;5017963;28;20056;-79
2021/12/15 02:23:58;;;;;;;189.63;24.67;;;6.90;99.90;;;5.33;100.00;102470.25;4989803;28;20062;-79
2021/12/15 02:26:37;;;;;;;181.13;23.98;;;;;;;5.32;100.00;102461.53;4963761;28;20527;-80
2021/12/15 02:29:14;;;;;;;202.93;26.52;;;;;;;5.34;100.00;102466.78;5000928;28;20039;-80
2021/12/15 02:31:55;;;;;;;203.13;25.73;;;6.90;99.90;;;5.33;100.00;102493.75;5007020;28;20105;-79
2021/12/15 02:34:54;;;;;;;201.57;28.00;;;6.90;99.90;;;5.33;100.00;102502.50;4933683;23;20049;-79
2021/12/15 02:37:19;;;;;;;170.35;25.77;;;7.00;99.90;;;5.35;100.00;102512.91;4939296;28;20554;-79
2021/12/15 02:40:03;;;;;;;190.68;24.92;;;7.00;99.90;;;5.37;100.00;102508.56;4938478;28;20022;-79
2021/12/15 02:42:36;;;;;;;177.75;26.20;;;7.00;99.90;;;5.36;100.00;102522.50;4965478;28;20151;-79
2021/12/15 02:45:10;;;;;;;199.82;26.13;;;6.90;99.90;;;5.30;100.00;102525.09;4974958;28;20556;-79
2021/12/15 02:47:37;;;;;;;197.32;26.08;;;6.90;99.90;;;5.35;100.00;102532.06;4935968;28;20099;-80
2021/12/15 02:50:10;;;;;;;193.50;27.38;;;6.90;99.90;;;5.38;100.00;102541.69;4923788;28;20101;-80
2021/12/15 02:52:38;;;;;;;187.50;26.40;;;;;;;5.40;100.00;102472.03;4943604;28;20278;-79
2021/12/15 02:55:07;;;;;;;199.27;26.77;;;7.10;99.90;;;5.43;100.00;102472.03;4958526;28;20049;-79
2021/12/15 02:57:34;;;;;;;193.48;28.30;;;7.00;99.90;;;5.49;100.00;102465.97;4944368;28;20073;-80
2021/12/15 03:00:06;;;;;;;196.68;28.38;;;7.10;99.90;;;5.49;100.00;102458.97;4952838;28;20515;-79
2021/12/15 03:03:09;;;;;;;187.52;25.98;;;7.10;99.90;;;5.48;100.00;102454.59;4940982;28;20118;-79
2021/12/15 03:05:34;;;;;;;166.88;25.67;;;7.10;99.90;;;5.52;100.00;102450.28;4988330;28;20052;-79
2021/12/15 03:08:15;;;;;;;173.65;24.95;;;7.10;99.90;;;5.53;100.00;102447.66;4931395;28;20117;-79
2021/12/15 03:16:25;;;;;;;172.00;24.98;;;7.10;99.90;;;5.57;100.00;102452.88;4977700;28;20250;-80
2021/12/15 03:18:51;;;;;;;161.93;24.25;;;7.20;99.90;;;5.58;100.00;102444.19;4959695;28;20115;-80
2021/12/15 03:21:25;;;;;;;166.98;25.08;;;7.20;99.90;;;5.59;100.00;102441.56;4925521;28;20021;-80
2021/12/15 03:24:18;;;;;;;166.00;24.23;;;7.20;99.90;;;5.60;100.00;102452.91;4953336;28;20036;-80
2021/12/15 03:27:04;;;;;;;200.95;25.92;;;7.20;99.90;;;5.61;100.00;102450.28;4946397;28;20915;-79
2021/12/15 03:35:35;;;;;;;165.30;24.40;;;7.20;99.90;;;5.60;100.00;102443.31;4914948;28;20420;-79
2021/12/15 03:38:01;;;;;;;177.75;26.27;;;7.10;99.90;;;5.54;100.00;102438.09;4951207;28;20121;-79
2021/12/15 03:40:40;;;;;;;166.57;25.52;;;7.10;99.90;;;5.54;100.00;102423.25;4935981;28;20428;-79
2021/12/15 03:43:12;;;;;;;185.30;25.23;;;7.20;99.90;;;5.52;100.00;102419.78;4981225;28;20041;-80
2021/12/15 03:45:50;;;;;;;163.48;26.08;;;7.10;99.90;;;5.47;100.00;102407.59;5000832;28;20037;-79
2021/12/15 03:48:24;;;;;;;169.20;25.20;;;7.00;99.90;;;5.42;100.00;102399.75;4963026;28;20123;-80
2021/12/15 03:50:53;;;;;;;150.70;23.02;;;7.10;99.90;;;5.43;100.00;102401.47;4960978;28;20510;-80
2021/12/15 03:53:20;;;;;;;162.18;25.02;;;7.10;99.90;;;5.43;100.00;102391.03;4926336;28;20729;-79
2021/12/15 03:55:52;;;;;;;157.43;23.83;;;7.00;99.90;;;5.42;100.00;102375.34;4954216;28;20195;-79
2021/12/15 03:58:23;;;;;;;169.20;23.98;;;7.00;99.90;;;5.41;100.00;102364.03;4935863;28;20035;-78
2021/12/15 04:01:03;;;;;;;159.85;23.48;;;7.00;99.90;;;5.47;100.00;102360.56;4973686;28;20132;-79
2021/12/15 04:03:39;;;;;;;156.82;24.33;;;7.10;99.90;;;5.52;100.00;102364.03;4958711;28;20022;-79
2021/12/15 04:06:15;;;;;;;162.70;24.73;;;7.10;99.90;;;5.54;100.00;102357.09;4961889;28;20401;-79
2021/12/15 04:08:41;;;;;;;136.07;22.63;;;7.10;99.90;;;5.52;100.00;102357.06;4943434;28;20106;-80
2021/12/15 04:11:13;;;;;;;146.50;22.02;;;7.10;99.90;;;5.54;100.00;102347.50;4950046;28;20297;-80
2021/12/15 04:13:48;;;;;;;158.70;23.85;;;7.10;99.90;;;5.54;100.00;102337.03;4961768;28;20072;-79
2021/12/15 04:17:26;;;;;;;159.88;25.23;;;7.10;99.90;;;5.55;100.00;102323.13;4942660;28;20041;-79
2021/12/15 04:19:24;;;;;;;133.00;22.98;;;7.10;99.90;;;5.51;100.00;102313.53;4948760;28;20470;-80
2021/12/15 04:21:50;;;;;;;156.60;25.42;;;4.60;99.90;;;5.49;100.00;102310.06;4967804;28;20041;-79
2021/12/15 04:24:23;;;;;;;159.85;25.63;;;7.10;99.90;;;5.54;100.00;102318.75;4948191;28;20456;-79
2021/12/15 04:26:50;;;;;;;171.32;24.10;;;7.20;99.90;;;5.53;100.00;102309.19;4924882;28;20030;-80
2021/12/15 04:29:17;;;;;;;153.55;22.92;;;7.10;99.90;;;5.53;100.00;102305.72;4928735;28;20071;-80
2021/12/15 04:32:04;;;;;;;138.00;22.45;;;7.20;99.90;;;5.54;100.00;102292.63;4958793;28;20088;-80
2021/12/15 04:34:33;;;;;;;;;;;7.20;99.90;;;5.58;100.00;102300.47;4969358;28;20567;-80
2021/12/15 04:36:59;;;;;;;134.75;21.15;;;7.20;99.90;;;5.55;100.00;102296.13;4942461;28;19974;-80
2021/12/15 04:39:28;;;;;;;154.25;22.50;;;7.20;99.90;;;5.58;100.00;102290.03;5007219;28;20093;-79
2021/12/15 04:41:59;;;;;;;125.22;20.77;;;7.60;99.90;;;5.59;100.00;102281.28;4945499;28;20165;-80
2021/12/15 04:44:30;;;;;;;140.45;21.95;;;7.20;99.90;;;5.58;100.00;102293.50;4949037;28;20109;-80
2021/12/15 04:47:11;;;;;;;120.45;20.40;;;7.20;99.90;;;5.58;100.00;102300.47;4919235;28;20528;-79
2021/12/15 04:49:50;;;;;;;121.57;18.88;;;7.20;99.90;;;5.58;100.00;102300.47;4963216;28;20036;-79
2021/12/15 04:52:24;;;;;;;132.48;20.70;;;7.10;99.90;;;5.60;100.00;102296.13;4976426;28;20108;-79
2021/12/15 04:54:51;;;;;;;123.40;21.88;;;7.20;99.90;;;5.58;100.00;102279.56;4949826;28;20049;-79
2021/12/15 04:57:19;;;;;;;133.45;21.33;;;7.20;99.90;;;5.62;100.00;102281.31;4907919;28;20053;-79
2021/12/15 04:59:49;;;;;;;136.95;21.63;;;7.20;99.90;;;5.61;100.00;102275.19;4936124;28;20475;-79
2021/12/15 05:02:17;;;;;;;134.65;22.13;;;7.20;99.90;;;5.61;100.00;102272.56;4971918;28;20107;-79
2021/12/15 05:04:46;;;;;;;133.75;21.50;;;7.20;99.90;;;5.63;100.00;102267.34;4967979;28;20036;-79
2021/12/15 05:07:14;;;;;;;140.48;21.90;;;7.20;99.90;;;5.64;100.00;102266.50;4979750;28;20052;-79
2021/12/15 05:09:49;;;;;;;127.78;20.83;;;7.20;99.90;;;5.65;100.00;102278.69;4915916;28;20107;-80
2021/12/15 05:12:17;;;;;;;153.00;22.75;;;7.20;99.90;;;5.63;100.00;102275.19;4964285;28;20504;-79
2021/12/15 05:14:51;;;;;;;139.25;22.40;;;7.20;99.90;;;5.63;100.00;102269.97;4927356;28;20041;-80
2021/12/15 05:17:17;;;;;;;129.55;20.35;;;7.20;99.90;;;5.68;100.00;102270.81;4931206;28;20537;-79
2021/12/15 05:19:45;;;;;;;136.43;21.63;;;7.30;99.90;;;5.66;100.00;102264.72;4933645;28;20022;-80
2021/12/15 05:22:17;;;;;;;130.02;21.10;;;7.30;99.90;;;5.65;100.00;102258.63;4931696;28;20036;-79
2021/12/15 05:24:43;;;;;;;130.10;23.05;;;7.20;99.90;;;5.67;100.00;102251.66;4930170;28;20081;-80
2021/12/15 05:27:13;;;;;;;117.50;20.77;;;;;;;5.68;100.00;102247.31;4939442;28;20029;-79
2021/12/15 05:29:46;;;;;;;107.88;18.42;;;7.20;99.90;;;5.67;100.00;102241.22;5037358;28;20417;-79
2021/12/15 05:32:18;;;;;;;132.27;21.00;;;7.20;99.90;;;5.67;100.00;102225.53;4944002;28;20026;-80
2021/12/15 05:34:49;;;;;;;110.20;19.40;;;7.20;99.90;;;5.63;100.00;102215.09;4953876;28;20037;-80
2021/12/15 05:37:19;;;;;;;118.50;19.60;;;7.20;99.90;;;5.62;100.00;102206.41;4925021;28;20045;-80
2021/12/15 05:39:46;;;;;;;134.27;20.88;;;7.20;99.90;;;5.62;100.00;102206.41;4962245;28;20139;-80
2021/12/15 05:42:19;;;;;;;117.32;18.38;;;7.20;99.90;;;5.59;100.00;102205.53;4932547;28;20514;-79
2021/12/15 05:44:49;;;;;;;117.40;20.13;;;7.20;99.90;;;5.60;100.00;102208.13;4928566;28;20044;-80
2021/12/15 05:47:20;;;;;;;111.45;19.73;;;7.20;99.90;;;5.68;100.00;102226.41;4914095;28;20034;-80
2021/12/15 05:49:49;;;;;;;120.00;19.02;;;7.30;99.90;;;5.67;100.00;102219.44;4938287;28;20033;-80
2021/12/15 05:52:16;;;;;;;115.50;20.75;;;7.30;99.90;;;5.69;100.00;102236.00;4989073;28;20041;-80
2021/12/15 05:54:49;;;;;;;110.88;19.85;;;7.30;99.90;;;5.69;100.00;102236.00;4960586;28;20506;-80
2021/12/15 05:57:15;;;;;;;118.93;20.73;;;7.30;99.90;;;5.69;100.00;102228.16;4953488;28;20045;-80
2021/12/15 05:59:41;;;;;;;115.03;19.00;;;7.30;99.90;;;5.67;100.00;102229.91;4925066;28;20033;-79
2021/12/15 06:02:08;;;;;;;113.53;20.42;;;7.30;99.90;;;5.68;100.00;102224.69;4953043;28;20036;-80
2021/12/15 06:04:41;;;;;;;107.55;19.23;;;7.30;99.90;;;5.73;100.00;102228.13;4953069;28;20195;-80
2021/12/15 06:07:07;;;;;;;121.90;20.35;;;7.30;99.90;;;5.75;100.00;102229.00;4974541;28;20058;-80
2021/12/15 06:09:34;;;;;;;132.05;20.50;;;7.30;99.90;;;5.78;100.00;102249.03;4964988;28;20065;-80
2021/12/15 06:12:01;;;;;;;123.50;20.30;;;7.40;99.90;;;5.77;100.00;102242.06;4961760;28;20037;-80
2021/12/15 06:14:36;;;;;;;112.63;19.98;;;7.30;99.90;;;5.79;100.00;102239.44;4935874;28;20033;-80
2021/12/15 06:17:17;;;;;;;122.28;20.58;;;7.40;99.90;;;5.83;100.00;102220.25;4948655;28;20505;-81
2021/12/15 06:19:44;;;;;;;109.22;20.10;;;7.40;99.90;;;5.84;100.00;102235.94;4961951;28;20025;-79
2021/12/15 06:22:11;;;;;;;137.38;20.75;;;7.50;99.90;;;5.90;100.00;102232.47;4936387;28;20069;-81
2021/12/15 06:24:40;;;;;;;113.22;20.08;;;7.50;99.90;;;5.90;100.00;102229.84;4942506;28;20029;-80
2021/12/15 06:27:15;;;;;;;112.63;19.85;;;7.50;99.90;;;5.88;100.00;102229.84;4914767;28;20025;-79
2021/12/15 06:29:47;;;;;;;109.03;19.63;;;7.50;99.90;;;5.94;100.00;102222.00;4957572;28;20033;-80
2021/12/15 06:32:14;;;;;;;122.28;21.52;;;7.50;99.90;;;5.95;100.00;102230.72;4961306;28;20480;-79
2021/12/15 06:34:41;;;;;;;103.18;20.30;;;7.50;99.90;;;5.94;100.00;102232.47;4926709;28;20485;-80
2021/12/15 06:37:13;;;;;;;120.22;19.67;;;7.50;99.90;;;5.94;100.00;102229.84;4974911;28;20099;-80
2021/12/15 06:39:40;;;;;;;102.32;18.63;;;7.50;99.90;;;5.94;100.00;102228.97;4957115;28;20509;-80
2021/12/15 06:42:07;;;;;;;101.07;18.88;;;7.50;99.90;;;5.98;100.00;102229.84;4985448;28;20130;-79
2021/12/15 06:44:33;;;;;;;96.38;19.45;;;7.60;99.90;;;5.97;100.00;102218.50;4957831;28;20118;-80
2021/12/15 07:00:47;;;;;;;86.03;18.55;;;7.70;99.90;;;6.11;100.00;102236.75;4924412;28;20040;-80
2021/12/15 07:03:23;;;;;;;84.35;18.48;;;7.70;99.90;;;6.11;100.00;102223.69;4958855;28;20035;-79
2021/12/15 07:05:52;;;;;;;82.38;18.15;;;7.70;99.90;;;6.13;100.00;102228.06;4922478;28;20041;-80
2021/12/15 07:08:28;;;;;;;89.00;18.65;;;7.70;99.90;;;6.15;100.00;102218.44;4945925;28;20048;-80
2021/12/15 07:10:57;;;;;;;79.53;20.02;;;7.70;99.90;;;6.16;100.00;102219.31;4959230;28;20635;-80
2021/12/15 07:13:28;;;;;;;92.97;19.98;;;7.80;99.90;;;6.17;100.00;102228.88;4949908;28;20072;-79
2021/12/15 07:16:02;;;;;;;87.75;19.40;;;7.80;99.90;;;6.17;100.00;102223.66;4945031;28;20041;-80
2021/12/15 07:19:19;;;;;;;79.55;18.85;;;7.70;99.90;;;6.16;100.00;102232.41;4955064;28;20056;-80
2021/12/15 07:21:34;;;;;;;72.40;17.15;;;7.70;99.90;;;6.19;100.00;102221.91;4974658;28;20044;-79
2021/12/15 07:24:09;;;;;;;71.30;18.20;;;7.80;99.90;;;6.20;100.00;102228.88;4970741;28;20033;-80
2021/12/15 07:26:36;;;;;;;64.13;17.75;;;7.80;99.90;;;6.22;100.00;102234.09;4951139;28;20647;-79
2021/12/15 07:29:03;;;;;;;67.63;17.67;;;7.80;99.90;;;6.24;100.00;102227.09;4935622;28;20048;-80
2021/12/15 07:31:29;;;;;;;69.13;17.60;;;7.80;99.90;;;6.25;100.00;102224.50;4966312;28;20025;-80
2021/12/15 07:34:05;;;;;;;64.97;16.85;;;7.80;99.90;;;6.29;100.00;102220.13;5012735;28;20041;-81
2021/12/15 07:36:31;;;;;;;61.95;17.48;;;7.80;99.90;;;6.34;100.00;102227.06;4959213;28;20168;-80
2021/12/15 07:38:59;;;;;;;67.55;17.20;;;7.90;99.90;;;6.32;100.00;102235.81;4937312;28;20040;-80
2021/12/15 07:41:32;;;;;;;65.82;17.63;;;7.90;99.90;;;6.31;100.00;102226.22;4939181;28;20017;-80
2021/12/15 07:44:00;;;;;;;60.30;17.10;;;7.90;99.90;;;6.32;100.00;102228.81;4921993;28;20030;-80
2021/12/15 07:46:34;;;;;;;64.22;16.92;;;7.90;99.90;;;6.31;100.00;102229.72;4948544;28;20537;-80
2021/12/15 07:49:00;;;;;;;59.30;17.02;;;7.80;99.90;;;6.31;100.00;102224.47;4936069;28;20026;-80
2021/12/15 07:51:26;;;;;;;64.10;17.67;;;7.90;99.90;;;6.35;100.00;102235.81;4978822;28;20029;-80
2021/12/15 07:53:52;;;;;;;68.90;17.25;;;7.90;99.90;;;6.36;100.00;102242.75;4974073;28;20520;-80
2021/12/15 07:56:26;;;;;;;66.00;17.08;;;7.90;99.90;;;6.33;100.00;102232.31;4946795;28;20070;-80
2021/12/15 07:58:52;;;;;;;59.30;16.35;;;7.90;99.90;;;6.33;100.00;102240.16;4935181;28;20814;-80
2021/12/15 08:01:20;;;;;;;62.17;17.67;;;7.90;99.90;;;6.35;100.00;102243.66;4972135;28;20066;-80
2021/12/15 08:03:55;;;;;;;60.85;16.42;;;7.90;99.90;;;6.36;100.00;102248.84;4954762;28;20033;-80
2021/12/15 08:06:34;;;;;;;56.70;17.00;;;7.90;99.90;;;6.39;100.00;102247.09;4959089;28;20126;-80
2021/12/15 08:09:00;;;;;;;53.03;16.67;;;8.00;99.90;;;6.41;100.00;102256.69;4929098;28;21053;-80
2021/12/15 08:11:27;;;;;;;58.95;17.80;;;8.00;99.90;;;6.44;100.00;102245.34;4944441;28;20021;-79
2021/12/15 08:13:53;;;;;;;60.13;17.80;;;8.00;99.90;;;6.47;100.00;102250.56;4909717;28;20120;-80
2021/12/15 08:16:22;;;;;;;60.70;17.90;;;8.10;99.90;;;6.51;100.00;102253.16;4924005;28;20096;-80
2021/12/15 08:18:49;;;;;;;54.30;16.05;;;;;;;6.51;100.00;102252.28;4932458;28;20026;-80
2021/12/15 08:21:16;;;;;;;52.08;17.00;;;8.10;99.90;;;6.51;100.00;102249.66;4965305;28;20079;-80
2021/12/15 08:23:42;;;;;;;59.28;17.33;;;8.10;99.90;;;6.56;100.00;102242.66;4938560;28;20037;-80
2021/12/15 08:26:09;;;;;;;74.15;20.08;;;8.10;99.90;;;6.64;100.00;102248.72;4977455;28;20035;-80
2021/12/15 08:28:43;;;;;;;60.33;19.20;;;;;;;6.64;100.00;102240.88;4881702;28;20095;-80
2021/12/15 08:31:10;;;;;;;64.93;17.90;;;8.20;99.90;;;6.66;100.00;102239.09;4988391;28;20029;-80
2021/12/15 08:33:36;;;;;;;68.22;19.70;;;8.30;99.90;;;6.72;100.00;102244.31;5003430;28;20041;-80
2021/12/15 08:36:11;;;;;;;66.70;18.90;;;8.30;99.90;;;6.74;100.00;102266.13;4970572;28;20226;-79
2021/12/15 08:38:44;;;;;;;68.70;18.98;;;8.30;99.90;;;6.76;100.00;102253.88;4942163;28;20038;-79
2021/12/15 08:41:29;;;;;;;61.92;18.15;;;8.40;99.90;;;6.80;100.00;102246.84;4954423;28;20629;-79
2021/12/15 08:43:57;;;;;;;70.40;20.60;;;8.40;99.90;;;6.86;100.00;102243.34;4986087;28;20059;-80
2021/12/15 08:46:38;;;;;;;72.03;19.65;;;8.40;99.90;;;6.85;100.00;102254.72;4937451;28;20378;-80
2021/12/15 08:49:14;;;;;;;60.78;18.80;;;;;;;6.87;100.00;102239.81;4944918;28;20021;-80
2021/12/15 08:51:41;;;;;;;59.08;18.40;;;8.40;99.90;;;6.86;100.00;102243.34;4961296;28;20504;-80
2021/12/15 08:54:17;;;;;;;63.80;19.60;;;8.40;99.90;;;6.86;100.00;102236.34;4943661;28;20048;-80
2021/12/15 08:56:44;;;;;;;68.95;19.67;;;8.40;99.90;;;6.88;100.00;102244.19;4939764;28;20029;-80
2021/12/15 08:59:12;;;;;;;61.05;18.63;;;8.40;99.90;;;6.93;100.00;102265.97;4977576;28;20041;-81
2021/12/15 09:01:48;;;;;;;66.13;20.02;;;8.50;99.90;;;6.95;100.00;102253.75;4941171;28;20034;-81
2021/12/15 09:04:17;;;;;;;55.60;18.45;;;8.50;99.90;;;6.94;100.00;102241.53;4938565;28;20548;-80
2021/12/15 09:06:48;;;;;;;68.80;20.42;;;8.50;99.90;;;6.96;100.00;102245.88;4921873;28;20033;-82
2021/12/15 09:09:20;;;;;;;67.90;19.50;;;8.50;99.90;;;7.03;100.00;102253.69;4942255;28;20034;-81
2021/12/15 09:11:54;;;;;;;69.00;20.35;;;8.50;99.90;;;6.99;100.00;102245.84;4937287;28;20505;-80
2021/12/15 09:14:21;;;;;;;64.45;18.98;;;;;;;7.03;100.00;102243.22;4948265;28;20095;-81
2021/12/15 09:16:56;;;;;;;69.25;18.17;;;8.60;99.90;;;7.07;100.00;102243.19;4945227;28;20086;-80
2021/12/15 09:19:25;;;;;;;59.13;18.10;;;8.60;99.90;;;7.03;100.00;102228.38;4985145;28;20037;-80
2021/12/15 09:22:02;;;;;;;65.13;19.08;;;8.60;99.90;;;7.06;100.00;102233.59;4914628;28;20029;-80
2021/12/15 09:24:31;;;;;;;54.45;17.90;;;8.60;99.90;;;7.05;100.00;102226.59;4899765;28;20438;-80
2021/12/15 09:27:20;;;;;;;57.58;17.85;;;8.60;99.90;;;7.11;100.00;102249.28;4953286;28;20072;-80
2021/12/15 09:29:46;;;;;;;56.85;18.65;;;8.60;99.90;;;7.11;100.00;102229.19;4997885;28;20022;-81
2021/12/15 09:32:19;;;;;;;54.65;17.20;;;8.60;99.90;;;7.12;100.00;102230.06;4969224;28;20041;-80
2021/12/15 09:34:53;;;;;;;48.92;16.95;;;8.70;99.90;;;7.16;100.00;102234.38;4978014;28;20041;-80
2021/12/15 09:37:28;;;;;;;61.20;18.17;;;8.70;99.90;;;7.17;100.00;102215.16;4979650;28;20150;-80
2021/12/15 09:40:07;;;;;;;55.05;18.42;;;8.70;99.90;;;7.18;100.00;102232.63;4958984;28;20059;-80
2021/12/15 09:42:40;;;;;;;55.03;18.55;;;8.70;99.90;;;7.21;100.00;102181.94;4932777;28;20103;-79
2021/12/15 09:45:51;;;;;;;62.53;19.27;;;8.70;99.90;;;7.18;100.00;102209.91;4960155;28;20028;-80
2021/12/15 10:02:38;;;;;;;60.20;18.17;;;8.70;99.90;;;7.29;100.00;102204.56;4940139;28;20151;-80
2021/12/15 10:20:02;;;;;;;62.20;19.13;;;8.90;99.90;;;7.44;100.00;102168.63;4951432;28;20076;-81
2021/12/15 10:22:40;;;;;;;62.08;18.30;;;9.00;99.90;;;7.52;100.00;102174.66;4981614;28;20037;-81
2021/12/15 10:25:12;;;;;;;54.15;18.15;;;9.10;99.90;;;7.68;100.00;102172.72;4951623;28;20033;-80
2021/12/15 10:28:05;;;;;;;58.42;17.30;;;9.20;99.90;;;7.83;100.00;102169.91;4991422;28;20029;-81
2021/12/15 10:30:42;;;;;;;65.72;19.13;;;9.30;99.90;;;7.84;100.00;102162.91;4958813;28;20021;-80
2021/12/15 10:33:18;;;;;;;53.05;17.67;;;9.30;99.90;;;7.87;100.00;102161.13;4978579;28;20060;-80
2021/12/15 10:36:12;;;;;;;52.13;17.92;;;9.40;99.90;;;7.96;100.00;102162.78;4949103;28;20049;-80
2021/12/15 10:39:05;;;;;;;55.63;16.88;;;9.40;99.90;;;7.95;100.00;102145.31;4949593;28;20025;-79
2021/12/15 10:41:44;;;;;;;53.83;17.65;;;9.40;99.90;;;7.93;100.00;102149.72;4916748;28;20036;-83
2021/12/15 10:44:24;;;;;;;50.97;16.15;;;9.40;99.90;;;7.87;100.00;102127.03;4974322;28;20034;-80
2021/12/15 10:46:57;;;;;;;59.22;17.08;;;;;;;7.97;100.00;102143.53;4964275;28;20047;-80
2021/12/15 10:49:36;;;;;;;49.72;15.15;;;9.50;99.90;;;8.10;100.00;102150.34;4994208;28;20152;-80
2021/12/15 10:52:09;;;;;;;51.75;16.30;;;9.50;99.90;;;8.10;100.00;102150.34;4971534;28;20037;-81
2021/12/15 10:54:59;;;;;;;50.15;16.75;;;9.50;99.90;;;8.05;100.00;102153.91;4931460;28;20049;-80
2021/12/15 10:57:34;;;;;;;51.78;17.27;;;9.50;99.90;;;8.01;100.00;102138.22;4948702;28;20752;-81
2021/12/15 11:00:17;;;;;;;49.40;15.75;;;9.50;99.90;;;8.04;100.00;102145.19;5008774;28;20033;-80
2021/12/15 11:02:54;;;;;;;53.05;17.77;;;9.50;99.90;;;8.00;100.00;102146.97;4969698;28;20037;-81
2021/12/15 11:05:24;;;;;;;55.20;17.23;;;9.50;99.90;;;8.00;100.00;102136.47;4959794;28;20507;-81
2021/12/15 11:07:58;;;;;;;55.97;19.23;;;9.50;99.90;;;7.96;100.00;102124.28;4968102;28;20032;-81
2021/12/15 11:10:34;;;;;;;50.40;17.08;;;9.40;99.90;;;7.89;100.00;102130.50;4996710;28;20043;-80
2021/12/15 11:13:14;;;;;;;48.58;16.23;;;9.40;99.90;;;7.90;100.00;102124.38;4965205;28;20043;-81
2021/12/15 11:15:52;;;;;;;59.25;17.33;;;9.50;99.90;;;7.99;100.00;102126.88;4966847;28;20383;-82
2021/12/15 11:18:35;;;;;;;53.08;16.98;;;9.50;99.90;;;8.06;100.00;102132.06;4950581;28;20152;-80
2021/12/15 11:21:08;;;;;;;42.42;15.40;;;9.50;99.90;;;8.03;100.00;102125.06;4973656;28;20017;-80
2021/12/15 11:23:37;;;;;;;53.95;16.73;;;9.50;99.90;;;8.05;100.00;102138.16;4958138;28;20029;-80
2021/12/15 11:26:11;;;;;;;50.17;16.30;;;9.50;99.90;;;8.05;100.00;102132.94;4985945;28;20025;-79
2021/12/15 11:28:53;;;;;;;50.85;16.85;;;9.60;99.90;;;8.05;100.00;102094.44;4967099;28;20048;-80
2021/12/15 11:31:31;;;;;;;42.58;15.30;;;9.50;99.90;;;8.05;100.00;102114.56;4971825;28;20372;-81